Time;durP1;ratioP1;P1;durP2;ratioP2;P2;SDS_P1;SDS_P2;PMS_P1;PMS_P2;Temp;Humidity;BMP_temperature;BMP_pressure;BME280_temperature;BME280_humidity;BME280_pressure;Samples;Min_cycle;Max_cycle;Signal;HPM_P1;HPM_P2
2023/01/08 00:00:13;;;;;;;;;;;;;;;-0.76;81.41;95762.88;5073508;28;1056;-47
2023/01/08 00:02:39;;;;;;;;;;;;;;;-0.88;83.15;95766.13;5071945;28;1987;-47
2023/01/08 00:05:05;;;;;;;;;;;;;;;-0.71;82.86;95766.13;5073495;28;1321;-47
2023/01/08 00:07:31;;;;;;;;;;;;;;;-0.57;82.48;95768.03;5073281;28;1032;-47
2023/01/08 00:09:57;;;;;;;;;;;;;;;-0.48;81.76;95767.56;5073219;28;1064;-47
2023/01/08 00:12:23;;;;;;;;;;;;;;;-0.51;80.94;95767.75;5073077;28;1187;-47
2023/01/08 00:14:49;;;;;;;;;;;;;;;-0.59;80.80;95764.63;5073165;28;1009;-47
2023/01/08 00:17:15;;;;;;;;;;;;;;;-0.73;80.50;95762.72;5073134;28;1240;-48
2023/01/08 00:19:41;;;;;;;;;;;;;;;-0.67;80.73;95757.16;5073179;28;981;-47
2023/01/08 00:22:08;;;;;;;;;;;;;;;-0.56;80.97;95763.66;5073116;28;1990;-47
2023/01/08 00:24:34;;;;;;;;;;;;;;;-0.54;80.94;95756.53;5072682;28;1284;-47
2023/01/08 00:27:00;;;;;;;;;;;;;;;-0.57;81.21;95757.53;5073029;28;1044;-47
2023/01/08 00:29:26;;;;;;;;;;;;;;;-0.52;81.28;95765.19;5072978;28;1013;-47
2023/01/08 00:31:52;;;;;;;;;;;;;;;-0.67;80.08;95764.19;5073197;28;1293;-47
2023/01/08 00:34:18;;;;;;;;;;;;;;;-0.81;80.16;95754.41;5074045;28;1045;-47
2023/01/08 00:36:44;;;;;;;;;;;;;;;-0.74;80.40;95757.53;5076829;28;1514;-47
2023/01/08 00:39:10;;;;;;;;;;;;;;;-0.80;79.93;95758.69;5076940;28;1009;-47
2023/01/08 00:41:36;;;;;;;;;;;;;;;-1.08;81.77;95764.47;5075559;28;1056;-47
2023/01/08 00:44:02;;;;;;;;;;;;;;;-1.07;81.75;95753.06;5076609;28;1976;-47
2023/01/08 00:46:28;;;;;;;;;;;;;;;-0.99;81.27;95764.91;5076790;28;1061;-47
2023/01/08 00:48:54;;;;;;;;;;;;;;;-0.85;81.20;95768.63;5076806;28;966;-47
2023/01/08 00:51:20;;;;;;;;;;;;;;;-0.80;80.89;95766.56;5076517;28;1072;-47
2023/01/08 00:53:46;;;;;;;;;;;;;;;-1.02;81.00;95765.03;5076700;28;950;-47
2023/01/08 00:56:12;;;;;;;;;;;;;;;-1.01;80.93;95764.09;5076486;28;1069;-47
2023/01/08 00:58:38;;;;;;;;;;;;;;;-0.95;81.00;95767.34;5076398;28;1095;-48
2023/01/08 01:01:08;;;;;;;;;;;;;;;-1.16;81.02;95764.84;5076369;28;1028;-47
2023/01/08 01:03:34;;;;;;;;;;;;;;;-1.30;81.27;95765.53;5076396;28;1902;-47
2023/01/08 01:06:01;;;;;;;;;;;;;;;-1.34;81.42;95766.59;5076437;28;1057;-47
2023/01/08 01:08:27;;;;;;;;;;;;;;;-1.36;82.75;95762.38;5076160;28;1076;-47
2023/01/08 01:10:53;;;;;;;;;;;;;;;-1.44;82.17;95760.09;5076287;28;1029;-46
2023/01/08 01:13:19;;;;;;;;;;;;;;;-1.39;83.89;95765.97;5076363;28;1037;-47
2023/01/08 01:15:45;;;;;;;;;;;;;;;-1.22;83.40;95762.53;5075268;28;1031;-47
2023/01/08 01:18:11;;;;;;;;;;;;;;;-1.08;82.55;95764.47;5075937;28;1176;-47
2023/01/08 01:20:37;;;;;;;;;;;;;;;-1.01;81.62;95771.97;5076212;28;1065;-47
2023/01/08 01:23:03;;;;;;;;;;;;;;;-1.07;80.50;95767.03;5076018;28;2001;-47
2023/01/08 01:25:29;;;;;;;;;;;;;;;-1.34;81.25;95765.75;5075585;28;1508;-47
2023/01/08 01:27:55;;;;;;;;;;;;;;;-1.48;82.25;95767.28;5076246;28;960;-47
2023/01/08 01:30:21;;;;;;;;;;;;;;;-1.32;82.19;95763.91;5075872;28;1008;-47
2023/01/08 01:32:47;;;;;;;;;;;;;;;-1.18;81.46;95761.47;5076070;28;948;-47
2023/01/08 01:35:13;;;;;;;;;;;;;;;-1.14;80.42;95765.63;5075999;28;1004;-47
2023/01/08 01:37:39;;;;;;;;;;;;;;;-1.26;80.83;95767.06;5075787;28;1007;-46
2023/01/08 01:40:05;;;;;;;;;;;;;;;-1.44;80.88;95760.97;5075775;28;1079;-47
2023/01/08 01:42:42;;;;;;;;;;;;;;;-1.65;81.45;95759.34;5074679;28;1992;-47
2023/01/08 01:45:17;;;;;;;;;;;;;;;-1.75;82.92;95752.84;5075909;28;1043;-46
2023/01/08 01:47:46;;;;;;;;;;;;;;;-1.53;83.39;95752.69;5075139;28;973;-46
2023/01/08 01:50:12;;;;;;;;;;;;;;;-1.52;82.60;95747.34;5075563;28;1020;-46
2023/01/08 01:52:49;;;;;;;;;;;;;;;-1.43;83.55;95757.38;5075428;28;1010;-46
2023/01/08 01:55:16;;;;;;;;;;;;;;;-1.26;82.14;95758.38;5075574;28;1036;-47
2023/01/08 01:57:45;;;;;;;;;;;;;;;-1.19;80.29;95755.38;5075530;28;1021;-47
2023/01/08 02:00:11;;;;;;;;;;;;;;;-1.18;79.86;95756.22;5075375;28;1021;-47
2023/01/08 02:02:38;;;;;;;;;;;;;;;-1.23;79.91;95752.97;5075327;28;1922;-47
2023/01/08 02:05:04;;;;;;;;;;;;;;;-1.26;79.64;95755.75;5074198;28;1029;-47
2023/01/08 02:07:37;;;;;;;;;;;;;;;-1.33;79.60;95755.16;5075110;28;1063;-47
2023/01/08 02:10:09;;;;;;;;;;;;;;;-1.34;80.18;95756.13;5075455;28;1063;-46
2023/01/08 02:12:38;;;;;;;;;;;;;;;-1.35;79.47;95753.56;5075241;28;1112;-47
2023/01/08 02:15:16;;;;;;;;;;;;;;;-1.44;79.85;95746.97;5075226;28;969;-47
2023/01/08 02:17:42;;;;;;;;;;;;;;;-1.51;80.01;95742.97;5081458;28;1081;-47
2023/01/08 02:20:27;;;;;;;;;;;;;;;-1.58;79.35;95745.84;5095217;28;1079;-47
2023/01/08 02:22:59;;;;;;;;;;;;;;;-1.78;80.23;95735.47;5095061;28;1909;-47
2023/01/08 02:25:28;;;;;;;;;;;;;;;-2.00;81.72;95741.69;5075323;28;1534;-47
2023/01/08 02:27:56;;;;;;;;;;;;;;;-1.88;81.91;95745.53;5074922;28;1041;-46
2023/01/08 02:30:22;;;;;;;;;;;;;;;-1.88;82.50;95740.28;5074642;28;1016;-46
2023/01/08 02:32:49;;;;;;;;;;;;;;;-1.76;81.38;95738.88;5074675;28;1079;-47
2023/01/08 02:35:15;;;;;;;;;;;;;;;-1.69;80.72;95736.81;5074909;28;986;-47
2023/01/08 02:37:41;;;;;;;;;;;;;;;-1.65;80.23;95735.72;5074547;28;1961;-47
2023/01/08 02:40:18;;;;;;;;;;;;;;;-1.67;80.02;95738.44;5074705;28;954;-47
2023/01/08 02:42:44;;;;;;;;;;;;;;;-1.74;79.62;95736.19;5074506;28;1906;-47
2023/01/08 02:45:29;;;;;;;;;;;;;;;-1.67;79.73;95734.97;5074514;28;970;-46
2023/01/08 02:48:14;;;;;;;;;;;;;;;-1.90;79.21;95736.03;5074456;28;1087;-47
2023/01/08 02:50:40;;;;;;;;;;;;;;;-2.08;80.28;95729.88;5074296;28;1087;-46
2023/01/08 02:53:12;;;;;;;;;;;;;;;-1.94;81.20;95726.63;5074446;28;1038;-47
2023/01/08 02:55:39;;;;;;;;;;;;;;;-1.83;80.32;95726.97;5074182;28;1111;-47
2023/01/08 02:58:06;;;;;;;;;;;;;;;-1.81;80.08;95725.13;5073425;28;1021;-47
2023/01/08 03:00:32;;;;;;;;;;;;;;;-2.05;79.47;95719.25;5074099;28;1096;-46
2023/01/08 03:03:07;;;;;;;;;;;;;;;-2.29;80.54;95722.09;5074049;28;1902;-46
2023/01/08 03:05:34;;;;;;;;;;;;;;;-2.28;81.51;95729.00;5074116;28;957;-46
2023/01/08 03:08:00;;;;;;;;;;;;;;;-2.17;81.15;95725.91;5074042;28;1007;-46
2023/01/08 03:10:28;;;;;;;;;;;;;;;-2.16;81.72;95725.00;5074178;28;1016;-47
2023/01/08 03:12:56;;;;;;;;;;;;;;;-2.05;81.57;95727.97;5073945;28;1028;-47
2023/01/08 03:15:29;;;;;;;;;;;;;;;-1.94;81.47;95734.50;5073990;28;1024;-46
2023/01/08 03:21:54;;;;;;;;;;;;;;;-1.91;79.97;95729.13;5053990;28;721;-46
2023/01/08 03:24:24;;;;;;;;;;;;;;;-2.15;80.11;95731.94;5053462;28;1468;-46
2023/01/08 03:26:52;;;;;;;;;;;;;;;-2.08;79.72;95735.13;5053684;28;1111;-47
2023/01/08 03:29:19;;;;;;;;;;;;;;;-2.05;80.24;95734.97;5053919;28;995;-47
2023/01/08 03:31:47;;;;;;;;;;;;;;;-2.06;79.54;95734.13;5053852;28;958;-46
2023/01/08 03:34:14;;;;;;;;;;;;;;;-2.09;79.37;95742.13;5053717;28;1041;-46
2023/01/08 03:36:43;;;;;;;;;;;;;;;-2.26;79.91;95737.66;5053432;28;1009;-47
2023/01/08 03:39:12;;;;;;;;;;;;;;;-2.16;80.24;95738.94;5052330;28;1024;-47
2023/01/08 03:41:38;;;;;;;;;;;;;;;-2.03;79.85;95733.13;5053445;28;1028;-47
2023/01/08 03:44:05;;;;;;;;;;;;;;;-1.99;79.45;95738.19;5053382;28;1910;-47
2023/01/08 03:46:32;;;;;;;;;;;;;;;-1.92;79.50;95730.03;5053267;28;1029;-46
2023/01/08 03:48:58;;;;;;;;;;;;;;;-2.12;78.58;95725.72;5053483;28;1013;-47
2023/01/08 03:51:25;;;;;;;;;;;;;;;-2.37;78.97;95718.97;5053292;28;1029;-46
2023/01/08 03:53:53;;;;;;;;;;;;;;;-2.46;79.42;95717.59;5053363;28;1032;-46
2023/01/08 03:56:19;;;;;;;;;;;;;;;-2.44;80.33;95725.41;5053476;28;950;-47
2023/01/08 03:58:46;;;;;;;;;;;;;;;-2.29;80.72;95729.09;5053269;28;1092;-46
2023/01/08 04:01:12;;;;;;;;;;;;;;;-2.18;79.86;95729.47;5053393;28;1046;-46
2023/01/08 04:03:38;;;;;;;;;;;;;;;-2.06;79.91;95714.94;5053258;28;1914;-46
2023/01/08 04:06:04;;;;;;;;;;;;;;;-2.08;79.30;95730.72;5053305;28;950;-47
2023/01/08 04:08:30;;;;;;;;;;;;;;;-2.37;78.81;95725.06;5052980;28;1502;-47
2023/01/08 04:10:56;;;;;;;;;;;;;;;-2.64;80.08;95734.97;5056874;28;1054;-46
2023/01/08 04:13:22;;;;;;;;;;;;;;;-2.48;80.76;95729.91;5057461;28;1049;-46
2023/01/08 04:15:49;;;;;;;;;;;;;;;-2.38;79.86;95732.97;5057442;28;1016;-46
2023/01/08 04:18:15;;;;;;;;;;;;;;;-2.35;80.19;95730.22;5057388;28;1053;-46
2023/01/08 04:20:46;;;;;;;;;;;;;;;-2.48;78.55;95732.53;5067454;28;1101;-47
2023/01/08 04:23:12;;;;;;;;;;;;;;;-2.76;79.31;95738.97;5076755;28;1906;-46
2023/01/08 04:25:38;;;;;;;;;;;;;;;-2.77;79.73;95741.63;5077351;28;914;-46
2023/01/08 04:28:04;;;;;;;;;;;;;;;-2.67;80.24;95740.34;5077358;28;992;-47
2023/01/08 04:30:30;;;;;;;;;;;;;;;-2.58;79.69;95731.22;5077090;28;1952;-46
2023/01/08 04:32:56;;;;;;;;;;;;;;;-2.65;79.98;95733.28;5077113;28;926;-47
2023/01/08 04:35:22;;;;;;;;;;;;;;;-2.67;80.02;95734.25;5076870;28;1021;-46
2023/01/08 04:37:48;;;;;;;;;;;;;;;-2.63;80.57;95730.59;5076935;28;1041;-46
2023/01/08 04:40:14;;;;;;;;;;;;;;;-2.52;79.90;95727.47;5076913;28;1024;-47
2023/01/08 04:42:40;;;;;;;;;;;;;;;-2.48;79.28;95732.53;5075817;28;1998;-47
2023/01/08 04:45:07;;;;;;;;;;;;;;;-2.43;79.95;95732.31;5077008;28;1143;-47
2023/01/08 04:47:33;;;;;;;;;;;;;;;-2.42;79.93;95731.41;5076827;28;1027;-47
2023/01/08 04:49:59;;;;;;;;;;;;;;;-2.44;79.41;95733.25;5076689;28;1025;-47
2023/01/08 04:52:26;;;;;;;;;;;;;;;-2.51;78.39;95732.66;5076488;28;1041;-47
2023/01/08 04:54:52;;;;;;;;;;;;;;;-2.43;78.99;95730.56;5076552;28;1024;-47
2023/01/08 04:57:19;;;;;;;;;;;;;;;-2.35;78.52;95735.47;5076722;28;1142;-46
2023/01/08 04:59:45;;;;;;;;;;;;;;;-2.39;77.92;95736.50;5076690;28;1080;-47
2023/01/08 05:02:10;;;;;;;;;;;;;;;-2.50;77.25;95737.00;5076456;28;1902;-47
2023/01/08 05:04:36;;;;;;;;;;;;;;;-2.64;78.41;95731.50;5076525;28;1050;-47
2023/01/08 05:07:03;;;;;;;;;;;;;;;-2.56;78.72;95730.25;5076401;28;1017;-47
2023/01/08 05:09:29;;;;;;;;;;;;;;;-2.64;78.30;95739.34;5076575;28;1044;-48
2023/01/08 05:11:55;;;;;;;;;;;;;;;-2.73;78.08;95735.38;5076316;28;1036;-47
2023/01/08 05:14:21;;;;;;;;;;;;;;;-2.84;78.27;95735.00;5076280;28;930;-47
2023/01/08 05:16:47;;;;;;;;;;;;;;;-2.89;78.42;95736.94;5076359;28;1071;-47
2023/01/08 05:19:13;;;;;;;;;;;;;;;-3.02;79.60;95734.84;5076255;28;1024;-47
2023/01/08 05:21:40;;;;;;;;;;;;;;;-2.97;79.90;95739.88;5074744;28;1620;-47
2023/01/08 05:24:06;;;;;;;;;;;;;;;-3.04;81.06;95736.66;5075580;28;1989;-47
2023/01/08 05:26:32;;;;;;;;;;;;;;;-2.87;79.69;95735.94;5075921;28;994;-47
2023/01/08 05:28:58;;;;;;;;;;;;;;;-2.81;79.19;95738.34;5076189;28;1257;-47
2023/01/08 05:31:24;;;;;;;;;;;;;;;-2.70;78.87;95744.84;5075990;28;1037;-47
2023/01/08 05:33:50;;;;;;;;;;;;;;;-2.84;77.79;95740.22;5075947;28;1036;-47
2023/01/08 05:36:16;;;;;;;;;;;;;;;-2.99;78.36;95737.34;5075828;28;1041;-47
2023/01/08 05:38:42;;;;;;;;;;;;;;;-2.90;78.88;95732.63;5075707;28;1076;-47
2023/01/08 05:41:09;;;;;;;;;;;;;;;-2.83;78.73;95736.69;5058207;28;1048;-47
2023/01/08 05:43:35;;;;;;;;;;;;;;;-2.83;78.80;95734.91;5057786;28;1992;-47
2023/01/08 05:46:02;;;;;;;;;;;;;;;-2.82;78.58;95741.84;5075760;28;1032;-47
2023/01/08 05:48:29;;;;;;;;;;;;;;;-2.82;78.30;95739.22;5075528;28;1131;-47
2023/01/08 05:50:55;;;;;;;;;;;;;;;-3.04;77.60;95736.66;5057819;28;974;-47
2023/01/08 05:53:21;;;;;;;;;;;;;;;-2.98;78.38;95736.44;5075389;28;1076;-46
2023/01/08 05:55:47;;;;;;;;;;;;;;;-2.99;78.32;95742.56;5075671;28;974;-47
2023/01/08 05:58:17;;;;;;;;;;;;;;;-3.22;77.38;95747.91;5075493;28;1210;-47
2023/01/08 06:00:44;;;;;;;;;;;;;;;-3.28;77.86;95742.91;5075397;28;1016;-48
2023/01/08 06:03:10;;;;;;;;;;;;;;;-3.38;78.76;95745.06;5075361;28;1914;-47
2023/01/08 06:05:36;;;;;;;;;;;;;;;-3.19;79.07;95742.53;5075251;28;1024;-47
2023/01/08 06:08:03;;;;;;;;;;;;;;;-3.06;78.74;95737.66;5075172;28;1092;-47
2023/01/08 06:10:29;;;;;;;;;;;;;;;-2.96;78.60;95744.19;5075107;28;1083;-47
2023/01/08 06:12:55;;;;;;;;;;;;;;;-3.06;77.90;95745.50;5075150;28;1041;-48
2023/01/08 06:15:21;;;;;;;;;;;;;;;-3.16;77.98;95750.28;5075137;28;1011;-47
2023/01/08 06:17:47;;;;;;;;;;;;;;;-3.03;77.50;95748.00;5075037;28;931;-47
2023/01/08 06:20:13;;;;;;;;;;;;;;;-3.10;78.58;95755.25;5074835;28;1081;-48
2023/01/08 06:22:39;;;;;;;;;;;;;;;-3.07;79.53;95756.88;5074744;28;1918;-48
2023/01/08 06:25:05;;;;;;;;;;;;;;;-2.96;79.33;95754.66;5074774;28;1490;-48
2023/01/08 06:27:31;;;;;;;;;;;;;;;-2.98;78.78;95756.50;5074939;28;1053;-47
2023/01/08 06:29:57;;;;;;;;;;;;;;;-2.82;78.34;95761.94;5074842;28;1033;-48
2023/01/08 06:32:23;;;;;;;;;;;;;;;-2.82;78.08;95754.09;5074596;28;966;-48
2023/01/08 06:34:49;;;;;;;;;;;;;;;-2.84;77.77;95761.16;5074665;28;1048;-47
2023/01/08 06:37:15;;;;;;;;;;;;;;;-2.88;76.98;95762.19;5074904;28;1022;-47
2023/01/08 06:39:42;;;;;;;;;;;;;;;-2.07;74.60;95753.38;5074790;28;1040;-48
2023/01/08 06:42:08;;;;;;;;;;;;;;;0.25;65.72;95761.13;5074700;28;1911;-48
2023/01/08 06:44:34;;;;;;;;;;;;;;;2.54;57.59;95772.28;5074429;28;1029;-48
2023/01/08 06:47:00;;;;;;;;;;;;;;;4.15;53.18;95770.47;5074559;28;1006;-48
2023/01/08 06:49:26;;;;;;;;;;;;;;;6.12;48.05;95789.75;5073638;28;1017;-48
2023/01/08 06:51:52;;;;;;;;;;;;;;;7.19;43.83;95805.19;5074240;28;1072;-48
2023/01/08 06:54:18;;;;;;;;;;;;;;;7.80;42.09;95809.09;5073047;28;937;-48
2023/01/08 06:56:47;;;;;;;;;;;;;;;8.24;40.94;95817.81;5073020;28;977;-48
2023/01/08 06:59:13;;;;;;;;;;;;;;;8.09;41.38;95819.13;5074051;28;985;-48
2023/01/08 07:01:39;;;;;;;;;;;;;;;8.24;41.50;95815.16;5072867;28;958;-48
2023/01/08 07:04:05;;;;;;;;;;;;;;;9.06;40.19;95816.97;5073990;28;1906;-48
2023/01/08 07:06:31;;;;;;;;;;;;;;;9.98;38.93;95823.88;5073883;28;1013;-48
2023/01/08 07:08:57;;;;;;;;;;;;;;;10.24;37.90;95833.97;5074264;28;972;-49
2023/01/08 07:11:23;;;;;;;;;;;;;;;10.57;37.22;95829.16;5073900;28;1845;-48
2023/01/08 07:13:49;;;;;;;;;;;;;;;11.27;36.44;95837.66;5073902;28;1863;-49
2023/01/08 07:16:15;;;;;;;;;;;;;;;12.13;35.25;95839.94;5073815;28;1083;-49
2023/01/08 07:18:41;;;;;;;;;;;;;;;11.88;34.76;95845.03;5074235;28;1856;-49
2023/01/08 07:21:08;;;;;;;;;;;;;;;11.33;36.00;95835.22;5073583;28;1259;-49
2023/01/08 07:23:34;;;;;;;;;;;;;;;11.61;35.61;95842.38;5073601;28;2236;-49
2023/01/08 07:26:01;;;;;;;;;;;;;;;11.69;35.35;95835.28;5073878;28;1016;-49
2023/01/08 07:28:27;;;;;;;;;;;;;;;12.20;35.27;95837.47;5073644;28;1040;-49
2023/01/08 07:30:53;;;;;;;;;;;;;;;12.11;35.18;95834.72;5056132;28;1048;-49
2023/01/08 07:33:19;;;;;;;;;;;;;;;12.29;35.50;95837.41;5073568;28;1080;-49
2023/01/08 07:35:52;;;;;;;;;;;;;;;12.48;35.61;95835.50;5055850;28;1046;-49
2023/01/08 07:38:18;;;;;;;;;;;;;;;12.39;35.60;95844.50;5073659;28;1119;-49
2023/01/08 07:40:44;;;;;;;;;;;;;;;12.00;36.62;95836.78;5073768;28;992;-49
2023/01/08 07:43:13;;;;;;;;;;;;;;;9.14;41.29;95814.50;5073522;28;1902;-49
2023/01/08 07:45:39;;;;;;;;;;;;;;;6.53;46.97;95796.31;5072997;28;1013;-49
2023/01/08 07:48:06;;;;;;;;;;;;;;;4.52;53.85;95775.84;5073513;28;1025;-48
2023/01/08 07:50:32;;;;;;;;;;;;;;;3.65;57.92;95765.06;5073347;28;1045;-49
2023/01/08 07:52:59;;;;;;;;;;;;;;;2.83;61.82;95756.38;5073024;28;898;-48
2023/01/08 07:55:25;;;;;;;;;;;;;;;2.64;63.28;95754.06;5073344;28;1104;-49
2023/01/08 07:57:52;;;;;;;;;;;;;;;1.82;66.60;95760.03;5073389;28;1033;-49
2023/01/08 08:00:18;;;;;;;;;;;;;;;1.17;69.44;95766.50;5072318;28;1025;-49
2023/01/08 08:02:44;;;;;;;;;;;;;;;1.03;71.00;95777.84;5073151;28;1898;-48
2023/01/08 08:05:10;;;;;;;;;;;;;;;1.09;72.25;95779.28;5072423;28;1048;-48
2023/01/08 08:07:36;;;;;;;;;;;;;;;0.79;72.92;95780.06;5073418;28;1030;-49
2023/01/08 08:10:03;;;;;;;;;;;;;;;0.53;74.36;95771.84;5073088;28;1041;-48
2023/01/08 08:12:29;;;;;;;;;;;;;;;0.61;74.46;95776.69;5055596;28;1039;-49
2023/01/08 08:14:55;;;;;;;;;;;;;;;0.84;74.63;95774.56;5073089;28;1032;-49
2023/01/08 08:17:21;;;;;;;;;;;;;;;1.00;73.63;95771.91;5055370;28;961;-49
2023/01/08 08:19:47;;;;;;;;;;;;;;;1.08;73.64;95772.28;5072523;28;1089;-49
2023/01/08 08:22:17;;;;;;;;;;;;;;;1.20;73.29;95774.22;5073320;28;1989;-49
2023/01/08 08:24:43;;;;;;;;;;;;;;;0.97;74.30;95775.56;5072658;28;1282;-48
2023/01/08 08:27:09;;;;;;;;;;;;;;;0.93;74.30;95774.00;5073258;28;978;-48
2023/01/08 08:29:35;;;;;;;;;;;;;;;0.89;75.97;95769.88;5073191;28;1075;-48
2023/01/08 08:32:01;;;;;;;;;;;;;;;0.94;75.97;95775.72;5072955;28;976;-49
2023/01/08 08:34:27;;;;;;;;;;;;;;;1.07;76.60;95775.88;5071939;28;1114;-48
2023/01/08 08:36:53;;;;;;;;;;;;;;;1.05;77.01;95773.31;5073143;28;1180;-49
2023/01/08 08:39:19;;;;;;;;;;;;;;;1.03;75.94;95771.72;5073086;28;961;-49
2023/01/08 08:41:45;;;;;;;;;;;;;;;1.15;76.20;95763.09;5072920;28;1056;-48
2023/01/08 08:44:11;;;;;;;;;;;;;;;1.39;75.56;95766.09;5072968;28;1918;-47
2023/01/08 08:46:37;;;;;;;;;;;;;;;1.50;75.59;95768.97;5072927;28;954;-48
2023/01/08 08:49:03;;;;;;;;;;;;;;;1.68;74.54;95771.44;5073044;28;974;-49
2023/01/08 08:51:29;;;;;;;;;;;;;;;1.78;75.08;95763.81;5073108;28;961;-49
2023/01/08 08:53:55;;;;;;;;;;;;;;;2.03;73.77;95765.81;5073047;28;992;-49
2023/01/08 08:56:21;;;;;;;;;;;;;;;2.45;71.60;95764.94;5075536;28;1064;-50
2023/01/08 08:58:49;;;;;;;;;;;;;;;2.45;71.93;95764.94;5076522;28;1102;-50
2023/01/08 09:01:15;;;;;;;;;;;;;;;2.50;71.36;95760.22;5076403;28;1011;-49
2023/01/08 09:03:41;;;;;;;;;;;;;;;2.52;71.59;95765.38;5076647;28;1910;-49
2023/01/08 09:06:11;;;;;;;;;;;;;;;2.97;70.17;95767.84;5076314;28;1040;-49
2023/01/08 09:08:37;;;;;;;;;;;;;;;3.08;68.29;95766.19;5076522;28;1051;-49
2023/01/08 09:11:03;;;;;;;;;;;;;;;3.38;68.88;95751.03;5076475;28;1052;-49
2023/01/08 09:13:29;;;;;;;;;;;;;;;3.49;68.14;95757.31;5076304;28;1099;-49
2023/01/08 09:15:59;;;;;;;;;;;;;;;3.51;68.03;95750.13;5076144;28;1011;-49
2023/01/08 09:18:25;;;;;;;;;;;;;;;3.51;68.48;95759.88;5075163;28;957;-49
2023/01/08 09:20:51;;;;;;;;;;;;;;;3.99;67.93;95757.47;5087965;28;1092;-49
2023/01/08 09:23:17;;;;;;;;;;;;;;;4.39;65.80;95753.84;5095739;28;1914;-49
2023/01/08 09:25:43;;;;;;;;;;;;;;;4.53;65.89;95750.19;5096398;28;1040;-49
2023/01/08 09:28:11;;;;;;;;;;;;;;;4.45;66.18;95743.63;5096197;28;1883;-49
2023/01/08 09:30:37;;;;;;;;;;;;;;;4.68;64.91;95743.78;5096142;28;1104;-49
2023/01/08 09:33:04;;;;;;;;;;;;;;;4.79;64.20;95743.03;5096145;28;1103;-48
2023/01/08 09:35:30;;;;;;;;;;;;;;;5.24;63.09;95736.16;5096294;28;969;-49
2023/01/08 09:37:57;;;;;;;;;;;;;;;5.60;61.92;95734.34;5096292;28;999;-49
2023/01/08 09:40:26;;;;;;;;;;;;;;;5.60;61.04;95725.56;5096045;28;1089;-49
2023/01/08 09:42:57;;;;;;;;;;;;;;;5.76;61.42;95719.91;5095943;28;1905;-49
2023/01/08 09:45:28;;;;;;;;;;;;;;;5.86;61.57;95713.78;5095854;28;1038;-49
2023/01/08 09:47:56;;;;;;;;;;;;;;;6.18;60.20;95706.94;5096266;28;1049;-49
2023/01/08 09:50:22;;;;;;;;;;;;;;;6.30;59.60;95707.78;5077938;28;1008;-49
2023/01/08 09:52:48;;;;;;;;;;;;;;;6.26;60.50;95707.22;5095897;28;1105;-49
2023/01/08 09:55:15;;;;;;;;;;;;;;;6.64;59.42;95705.97;5095651;28;1118;-49
2023/01/08 09:57:43;;;;;;;;;;;;;;;6.67;59.35;95697.72;5095647;28;966;-49
2023/01/08 10:00:12;;;;;;;;;;;;;;;6.72;60.09;95695.56;5095779;28;1040;-49
2023/01/08 10:02:38;;;;;;;;;;;;;;;6.84;59.85;95693.72;5092610;28;1914;-49
2023/01/08 10:05:09;;;;;;;;;;;;;;;7.13;59.30;95691.34;5095551;28;1016;-49
2023/01/08 10:07:35;;;;;;;;;;;;;;;7.16;58.57;95695.53;5094911;28;1009;-49
2023/01/08 10:10:01;;;;;;;;;;;;;;;7.46;58.05;95689.50;5095428;28;1040;-49
2023/01/08 10:12:29;;;;;;;;;;;;;;;7.57;58.13;95684.09;5095211;28;1027;-49
2023/01/08 10:14:58;;;;;;;;;;;;;;;7.68;58.15;95679.69;5095608;28;1067;-49
2023/01/08 10:17:27;;;;;;;;;;;;;;;7.69;57.80;95679.56;5095229;28;1079;-49
2023/01/08 10:19:53;;;;;;;;;;;;;;;7.69;57.92;95671.56;5095190;28;1125;-49
2023/01/08 10:22:20;;;;;;;;;;;;;;;7.98;57.74;95676.22;5095113;28;1987;-49
2023/01/08 10:24:46;;;;;;;;;;;;;;;8.38;56.75;95678.06;5094804;28;1159;-49
2023/01/08 10:27:14;;;;;;;;;;;;;;;8.37;55.85;95674.56;5094937;28;1960;-49
2023/01/08 10:29:40;;;;;;;;;;;;;;;8.07;56.80;95659.44;5095074;28;1275;-47
2023/01/08 10:32:17;;;;;;;;;;;;;;;7.98;56.93;95650.41;5077077;28;1095;-48
2023/01/08 10:34:46;;;;;;;;;;;;;;;7.79;56.98;95651.16;5095094;28;1075;-48
2023/01/08 10:37:13;;;;;;;;;;;;;;;8.17;56.99;95638.16;5094792;28;1091;-49
2023/01/08 10:39:44;;;;;;;;;;;;;;;8.55;54.77;95642.81;5094802;28;1044;-49
2023/01/08 10:42:11;;;;;;;;;;;;;;;8.48;54.98;95639.03;5094985;28;958;-47
2023/01/08 10:44:37;;;;;;;;;;;;;;;8.49;55.12;95627.38;5094875;28;1942;-48
2023/01/08 10:47:04;;;;;;;;;;;;;;;8.64;54.22;95629.66;5094810;28;942;-48
2023/01/08 10:49:37;;;;;;;;;;;;;;;8.38;55.84;95622.97;5094733;28;1017;-48
2023/01/08 10:52:04;;;;;;;;;;;;;;;8.54;54.73;95621.66;5094616;28;1063;-48
2023/01/08 10:54:30;;;;;;;;;;;;;;;8.86;53.49;95617.88;5094738;28;1039;-48
2023/01/08 10:56:57;;;;;;;;;;;;;;;9.06;53.91;95610.75;5094686;28;1325;-49
2023/01/08 10:59:23;;;;;;;;;;;;;;;8.85;53.32;95609.03;5094319;28;1052;-49
2023/01/08 11:01:51;;;;;;;;;;;;;;;9.26;52.78;95612.41;5094576;28;946;-49
2023/01/08 11:04:28;;;;;;;;;;;;;;;9.77;52.13;95607.69;5094181;28;1902;-49
2023/01/08 11:06:58;;;;;;;;;;;;;;;10.03;51.09;95607.03;5094344;28;959;-47
2023/01/08 11:09:29;;;;;;;;;;;;;;;9.82;51.34;95602.75;5094277;28;1107;-47
2023/01/08 11:11:56;;;;;;;;;;;;;;;9.28;52.24;95597.09;5094269;28;1852;-47
2023/01/08 11:14:34;;;;;;;;;;;;;;;9.41;52.19;95590.63;5094177;28;1058;-48
2023/01/08 11:17:01;;;;;;;;;;;;;;;9.33;52.43;95581.53;5094234;28;979;-48
2023/01/08 11:19:28;;;;;;;;;;;;;;;9.49;52.94;95591.59;5092908;28;1115;-49
2023/01/08 11:21:54;;;;;;;;;;;;;;;9.44;52.11;95593.00;5093996;28;1043;-48
2023/01/08 11:24:27;;;;;;;;;;;;;;;9.38;52.48;95591.75;5075381;28;1987;-47
2023/01/08 11:27:13;;;;;;;;;;;;;;;9.18;53.38;95586.44;5094056;28;958;-48
2023/01/08 11:29:51;;;;;;;;;;;;;;;9.64;51.95;95580.47;5079846;28;1155;-48
2023/01/08 11:32:17;;;;;;;;;;;;;;;9.96;51.76;95585.44;5094061;28;956;-48
2023/01/08 11:34:52;;;;;;;;;;;;;;;9.76;50.63;95577.47;5094032;28;1012;-48
2023/01/08 11:37:20;;;;;;;;;;;;;;;9.40;51.47;95573.78;5093724;28;1024;-48
2023/01/08 11:39:46;;;;;;;;;;;;;;;9.41;53.06;95580.81;5093784;28;1044;-48
2023/01/08 11:42:26;;;;;;;;;;;;;;;9.47;51.82;95563.38;5093538;28;1029;-48
2023/01/08 11:44:52;;;;;;;;;;;;;;;9.30;53.04;95557.78;5093914;28;954;-48
2023/01/08 11:47:27;;;;;;;;;;;;;;;9.72;51.88;95567.22;5093603;28;1837;-48
2023/01/08 11:50:11;;;;;;;;;;;;;;;9.68;51.64;95556.00;5093764;28;1047;-48
2023/01/08 11:52:46;;;;;;;;;;;;;;;9.65;51.55;95555.44;5093492;28;1091;-48
2023/01/08 11:55:30;;;;;;;;;;;;;;;9.49;51.69;95543.56;5093741;28;1060;-48
2023/01/08 12:01:46;;;;;;;;;;;;;;;9.10;53.24;95532.13;5056619;28;1342;-51
2023/01/08 12:04:30;;;;;;;;;;;;;;;9.10;53.89;95538.28;5053020;28;1989;-51
2023/01/08 12:07:26;;;;;;;;;;;;;;;8.91;53.90;95536.47;5053259;28;1184;-51
2023/01/08 12:10:04;;;;;;;;;;;;;;;8.92;53.87;95527.50;5040352;28;1255;-51
2023/01/08 12:12:39;;;;;;;;;;;;;;;9.43;53.04;95530.78;5053454;28;1043;-50
2023/01/08 12:15:25;;;;;;;;;;;;;;;9.64;52.63;95527.09;5053179;28;967;-51
2023/01/08 12:18:11;;;;;;;;;;;;;;;9.66;52.72;95525.09;5053080;28;1045;-51
2023/01/08 12:20:42;;;;;;;;;;;;;;;9.51;52.52;95527.41;5052861;28;2316;-51
2023/01/08 12:23:11;;;;;;;;;;;;;;;9.36;53.15;95527.00;5052602;28;1906;-51
2023/01/08 12:25:56;;;;;;;;;;;;;;;9.61;53.04;95522.03;5033175;28;1042;-51
2023/01/08 12:28:22;;;;;;;;;;;;;;;9.33;53.17;95514.81;5032885;28;1070;-50
2023/01/08 12:30:58;;;;;;;;;;;;;;;9.54;53.16;95525.28;5034731;28;1016;-51
2023/01/08 12:33:24;;;;;;;;;;;;;;;9.66;52.68;95514.41;5036936;28;1931;-50
2023/01/08 12:35:53;;;;;;;;;;;;;;;9.80;52.28;95521.09;5036967;28;949;-51
2023/01/08 12:38:29;;;;;;;;;;;;;;;9.90;52.47;95511.19;5036786;28;1012;-51
2023/01/08 12:41:00;;;;;;;;;;;;;;;9.76;52.47;95504.53;5036928;28;1027;-51
2023/01/08 12:43:31;;;;;;;;;;;;;;;9.60;52.55;95510.50;5036967;28;1918;-52
2023/01/08 12:46:00;;;;;;;;;;;;;;;9.45;53.25;95493.28;5036761;28;1265;-51
2023/01/08 12:48:28;;;;;;;;;;;;;;;9.47;53.63;95500.16;5036764;28;1020;-51
2023/01/08 12:50:54;;;;;;;;;;;;;;;9.29;53.86;95497.38;5036756;28;983;-51
2023/01/08 12:53:20;;;;;;;;;;;;;;;9.21;54.16;95494.59;5036587;28;1863;-51
2023/01/08 12:55:55;;;;;;;;;;;;;;;9.29;54.06;95493.88;5036556;28;977;-50
2023/01/08 12:58:23;;;;;;;;;;;;;;;9.35;53.59;95490.63;5036579;28;965;-51
2023/01/08 13:00:55;;;;;;;;;;;;;;;9.13;53.96;95483.81;5036601;28;1085;-50
2023/01/08 13:03:23;;;;;;;;;;;;;;;9.16;54.19;95487.03;5036501;28;1910;-51
2023/01/08 13:05:50;;;;;;;;;;;;;;;9.24;54.12;95483.66;5036541;28;1047;-51
2023/01/08 13:08:33;;;;;;;;;;;;;;;9.34;54.14;95484.44;5036336;28;954;-52
2023/01/08 13:11:00;;;;;;;;;;;;;;;9.42;53.85;95485.56;5036506;28;1863;-51
2023/01/08 13:13:38;;;;;;;;;;;;;;;9.39;53.98;95492.03;5036427;28;1041;-51